Time;durP1;ratioP1;P1;durP2;ratioP2;P2;SDS_P1;SDS_P2;PMS_P1;PMS_P2;Temp;Humidity;BMP_temperature;BMP_pressure;BME280_temperature;BME280_humidity;BME280_pressure;Samples;Min_cycle;Max_cycle;Signal;HPM_P1;HPM_P2
2022/12/16 00:00:14;;;;;;;26.03;10.27;;;2.90;99.90;;;0.55;100.00;99321.88;10555563;28;20091;-86
2022/12/16 00:05:20;;;;;;;26.97;9.17;;;3.00;99.90;;;0.57;100.00;99328.63;10537357;27;20530;-88
2022/12/16 00:10:23;;;;;;;31.30;10.47;;;3.00;99.90;;;0.53;100.00;99309.75;10610815;27;20062;-87
2022/12/16 00:15:26;;;;;;;27.03;9.57;;;3.00;99.90;;;0.57;100.00;99307.72;10615235;27;20086;-88
2022/12/16 00:20:29;;;;;;;20.83;8.93;;;3.00;99.90;;;0.58;100.00;99304.16;10591585;27;20059;-87
2022/12/16 00:25:32;;;;;;;22.67;8.97;;;3.00;99.90;;;0.58;100.00;99288.47;10607787;27;20063;-88
2022/12/16 00:30:35;;;;;;;25.10;8.67;;;3.00;99.90;;;0.58;100.00;99293.69;10583403;27;20059;-87
2022/12/16 00:35:38;;;;;;;21.53;8.23;;;3.00;99.90;;;0.56;100.00;99287.75;10577405;27;20059;-87
2022/12/16 00:40:47;;;;;;;20.00;7.53;;;3.00;99.90;;;0.57;100.00;99299.88;10599767;27;20060;-87
2022/12/16 00:45:50;;;;;;;17.87;7.73;;;3.00;99.90;;;0.58;100.00;99298.09;10598366;27;20138;-87
2022/12/16 00:50:54;;;;;;;13.43;5.80;;;3.00;99.90;;;0.63;100.00;99301.16;10566935;27;20423;-87
2022/12/16 00:56:09;;;;;;;13.47;6.80;;;3.00;99.90;;;0.65;100.00;99300.06;10584551;27;20117;-88
2022/12/16 01:01:13;;;;;;;14.27;5.83;;;3.00;99.90;;;0.66;100.00;99285.19;10552127;28;20067;-86
2022/12/16 01:06:17;;;;;;;12.57;5.97;;;3.00;99.90;;;0.69;100.00;99270.09;10590117;27;20083;-85
2022/12/16 01:11:20;;;;;;;19.43;6.63;;;3.10;99.90;;;0.70;100.00;99258.69;10592101;27;20507;-86
2022/12/16 01:16:23;;;;;;;12.63;6.10;;;3.10;99.90;;;0.73;100.00;99247.16;10620547;27;20071;-84
2022/12/16 01:21:26;;;;;;;13.63;5.60;;;3.10;99.90;;;0.74;100.00;99236.56;10542785;27;20052;-88
2022/12/16 01:26:30;;;;;;;13.57;5.47;;;3.10;99.90;;;0.76;100.00;99218.09;10600537;27;20132;-89
2022/12/16 01:31:33;;;;;;;13.07;5.40;;;3.20;99.90;;;0.76;100.00;99203.25;10596941;27;20055;-89
2022/12/16 01:36:36;;;;;;;8.47;4.80;;;3.20;99.90;;;0.77;100.00;99207.50;10559952;27;20573;-88
2022/12/16 01:41:39;;;;;;;9.07;5.07;;;3.10;99.90;;;0.78;100.00;99190.88;10604485;27;20066;-87
2022/12/16 01:46:50;;;;;;;8.10;4.00;;;3.20;99.90;;;0.81;100.00;99181.94;10591753;27;20503;-87
2022/12/16 01:51:59;;;;;;;8.83;4.23;;;3.20;99.90;;;0.84;100.00;99165.16;10582834;27;20056;-87
2022/12/16 01:57:08;;;;;;;9.60;4.63;;;3.20;99.90;;;0.85;100.00;99154.56;10586548;27;20059;-86
2022/12/16 02:02:13;;;;;;;10.33;4.93;;;3.20;99.90;;;0.87;100.00;99144.81;10610797;27;20085;-88
2022/12/16 02:07:16;;;;;;;7.60;3.80;;;3.30;99.90;;;0.87;100.00;99126.50;10582635;27;20056;-88
2022/12/16 02:12:38;;;;;;;8.27;4.00;;;3.30;99.90;;;0.86;100.00;99103.09;10579806;27;20104;-88
2022/12/16 02:18:02;;;;;;;5.97;3.58;;;3.30;99.90;;;0.89;100.00;99097.59;10609289;27;20059;-88
2022/12/16 02:23:33;;;;;;;7.60;4.13;;;3.30;99.90;;;0.94;100.00;99062.22;10597439;27;20058;-88
2022/12/16 02:29:17;;;;;;;9.32;4.00;;;3.40;99.90;;;0.95;100.00;99034.25;10647647;27;20132;-89
2022/12/16 02:34:26;;;;;;;6.33;3.50;;;3.40;99.90;;;0.92;100.00;99019.69;10614685;27;20055;-89
2022/12/16 02:39:37;;;;;;;7.20;4.00;;;3.40;99.90;;;0.96;100.00;99015.00;10574323;27;20064;-87
2022/12/16 02:44:44;;;;;;;9.80;4.10;;;3.40;99.90;;;0.99;100.00;98999.84;10570598;27;20526;-88
2022/12/16 02:49:53;;;;;;;12.33;4.73;;;3.40;99.90;;;1.01;100.00;98986.63;10608071;27;20056;-88
2022/12/16 02:55:03;;;;;;;9.00;4.50;;;3.40;99.90;;;1.02;100.00;98985.66;10613347;27;20059;-88
2022/12/16 03:00:11;;;;;;;11.90;5.37;;;3.40;99.90;;;1.06;100.00;98987.06;10591436;27;20457;-88
2022/12/16 03:05:25;;;;;;;13.80;5.23;;;3.50;99.90;;;1.10;100.00;99008.56;10597431;27;20420;-88
2022/12/16 03:10:35;;;;;;;9.17;4.27;;;3.50;99.90;;;1.12;100.00;99004.81;10612884;27;20155;-88
2022/12/16 03:15:40;;;;;;;9.53;4.83;;;3.50;99.90;;;1.14;100.00;98981.13;10609170;27;20692;-88
2022/12/16 03:21:01;;;;;;;9.23;4.10;;;3.50;99.90;;;1.17;100.00;98976.47;10594491;27;20051;-88
2022/12/16 03:26:20;;;;;;;10.37;4.43;;;3.60;99.90;;;1.19;100.00;98968.47;10597892;27;20583;-88
2022/12/16 03:31:37;;;;;;;9.67;4.37;;;3.60;99.90;;;1.19;100.00;98948.34;10595582;27;20101;-87
2022/12/16 03:36:42;;;;;;;8.27;4.07;;;3.60;99.90;;;1.19;100.00;98942.28;10548935;27;20118;-87
2022/12/16 03:41:53;;;;;;;11.67;5.10;;;3.60;99.90;;;1.21;100.00;98945.63;10613990;27;20081;-87
2022/12/16 03:46:56;;;;;;;10.70;4.50;;;3.60;99.90;;;1.24;100.00;98969.69;10584710;27;20519;-87
2022/12/16 03:51:59;;;;;;;10.10;4.20;;;3.60;99.90;;;1.26;100.00;98977.41;10576445;27;20059;-87
2022/12/16 03:57:03;;;;;;;9.63;4.30;;;3.60;99.90;;;1.26;100.00;98985.25;10603720;27;20067;-88
2022/12/16 04:02:06;;;;;;;13.20;4.63;;;3.70;99.90;;;1.29;100.00;98949.19;10611046;27;20094;-88
2022/12/16 04:07:23;;;;;;;13.50;5.17;;;3.70;99.90;;;1.33;100.00;98945.34;10621690;27;20450;-88
2022/12/16 04:28:32;;;;;;;15.80;6.20;;;3.80;99.90;;;1.41;100.00;98910.59;10600907;27;20090;-88
